Mathews, Louisiana
Current Conditions -  °F | °C
As of 12:55 AM on Sunday 21 Dec 2014 (Local Time) from KHUM Reporting Station
Overcast Overcast  
Wind Chill: 51°   Ceiling: 1000
Heat Index: 51°   Visibility: 7mi
Dew Point: 49°   Wind: 6mph
Humidity: 92%   Direction: 30°NNE
Pressure: 30.13"   Gusts: NA
Location:  29.69°N, 90.55°W
Report Text: KHUM 210655Z AUTO 03005KT 7SM OVC010 11/09 A3013 RMK AO2 T01050092
Loading
Personal Weather Stations






























Interactive Weather Map New forecast layout! Learn more

10-Day Weather Forecast

Advertisements
Track Severe Weather on mobile